sensor_id;sensor_type;location;lat;lon;timestamp;P1;durP1;ratioP1;P2;durP2;ratioP2
72049;SDS011;59916;50.914;5.888;2022-08-02T00:00:10;4.20;;;2.43;;
72049;SDS011;59916;50.914;5.888;2022-08-02T00:02:37;3.65;;;2.35;;
72049;SDS011;59916;50.914;5.888;2022-08-02T00:05:02;3.73;;;1.80;;
72049;SDS011;59916;50.914;5.888;2022-08-02T00:07:28;3.30;;;2.47;;
72049;SDS011;59916;50.914;5.888;2022-08-02T00:09:53;3.50;;;2.43;;
72049;SDS011;59916;50.914;5.888;2022-08-02T00:12:19;3.47;;;2.33;;
72049;SDS011;59916;50.914;5.888;2022-08-02T00:14:44;3.33;;;1.87;;
72049;SDS011;59916;50.914;5.888;2022-08-02T00:17:09;3.00;;;2.00;;
72049;SDS011;59916;50.914;5.888;2022-08-02T00:19:35;3.77;;;2.10;;
72049;SDS011;59916;50.914;5.888;2022-08-02T00:22:00;4.17;;;2.20;;
72049;SDS011;59916;50.914;5.888;2022-08-02T00:24:25;3.60;;;2.50;;
72049;SDS011;59916;50.914;5.888;2022-08-02T00:26:51;3.77;;;2.67;;
72049;SDS011;59916;50.914;5.888;2022-08-02T00:29:16;3.33;;;1.80;;
72049;SDS011;59916;50.914;5.888;2022-08-02T00:31:41;3.40;;;2.20;;
72049;SDS011;59916;50.914;5.888;2022-08-02T00:34:06;5.07;;;2.60;;
72049;SDS011;59916;50.914;5.888;2022-08-02T00:36:32;3.73;;;2.33;;
72049;SDS011;59916;50.914;5.888;2022-08-02T00:38:57;3.07;;;2.20;;
72049;SDS011;59916;50.914;5.888;2022-08-02T00:41:22;3.07;;;2.00;;
72049;SDS011;59916;50.914;5.888;2022-08-02T00:43:49;2.83;;;2.03;;
72049;SDS011;59916;50.914;5.888;2022-08-02T00:46:16;4.53;;;2.43;;
72049;SDS011;59916;50.914;5.888;2022-08-02T00:48:43;3.65;;;2.50;;
72049;SDS011;59916;50.914;5.888;2022-08-02T00:51:09;3.55;;;2.42;;
72049;SDS011;59916;50.914;5.888;2022-08-02T00:53:35;4.00;;;2.50;;
72049;SDS011;59916;50.914;5.888;2022-08-02T00:56:00;2.43;;;2.20;;
72049;SDS011;59916;50.914;5.888;2022-08-02T00:58:26;4.63;;;2.60;;
72049;SDS011;59916;50.914;5.888;2022-08-02T01:00:52;3.10;;;2.20;;
72049;SDS011;59916;50.914;5.888;2022-08-02T01:03:17;3.33;;;2.35;;
72049;SDS011;59916;50.914;5.888;2022-08-02T01:05:43;3.90;;;2.37;;
72049;SDS011;59916;50.914;5.888;2022-08-02T01:08:08;2.97;;;2.27;;
72049;SDS011;59916;50.914;5.888;2022-08-02T01:10:34;3.00;;;2.13;;
72049;SDS011;59916;50.914;5.888;2022-08-02T01:12:59;3.13;;;2.20;;
72049;SDS011;59916;50.914;5.888;2022-08-02T01:15:24;3.00;;;2.40;;
72049;SDS011;59916;50.914;5.888;2022-08-02T01:23:01;3.40;;;2.50;;
72049;SDS011;59916;50.914;5.888;2022-08-02T01:36:55;3.70;;;2.50;;
72049;SDS011;59916;50.914;5.888;2022-08-02T01:39:25;3.85;;;2.30;;
72049;SDS011;59916;50.914;5.888;2022-08-02T01:41:53;3.72;;;2.20;;
72049;SDS011;59916;50.914;5.888;2022-08-02T01:44:22;3.43;;;1.97;;
72049;SDS011;59916;50.914;5.888;2022-08-02T01:46:50;2.65;;;2.00;;
72049;SDS011;59916;50.914;5.888;2022-08-02T01:49:17;3.17;;;2.20;;
72049;SDS011;59916;50.914;5.888;2022-08-02T01:51:47;3.95;;;2.03;;
72049;SDS011;59916;50.914;5.888;2022-08-02T01:54:33;3.30;;;2.20;;
72049;SDS011;59916;50.914;5.888;2022-08-02T01:57:01;3.57;;;1.97;;
72049;SDS011;59916;50.914;5.888;2022-08-02T01:59:29;3.00;;;1.83;;
72049;SDS011;59916;50.914;5.888;2022-08-02T02:01:56;2.78;;;2.25;;
72049;SDS011;59916;50.914;5.888;2022-08-02T02:04:23;3.08;;;2.03;;
72049;SDS011;59916;50.914;5.888;2022-08-02T02:06:51;3.25;;;2.35;;
72049;SDS011;59916;50.914;5.888;2022-08-02T02:09:20;2.67;;;2.03;;
72049;SDS011;59916;50.914;5.888;2022-08-02T02:11:46;3.00;;;2.10;;
72049;SDS011;59916;50.914;5.888;2022-08-02T02:14:12;3.28;;;2.30;;
72049;SDS011;59916;50.914;5.888;2022-08-02T02:16:39;3.35;;;2.22;;
72049;SDS011;59916;50.914;5.888;2022-08-02T02:19:06;3.08;;;2.25;;
72049;SDS011;59916;50.914;5.888;2022-08-02T02:21:33;2.83;;;1.70;;
72049;SDS011;59916;50.914;5.888;2022-08-02T02:23:59;2.90;;;1.92;;
72049;SDS011;59916;50.914;5.888;2022-08-02T02:26:24;2.60;;;1.80;;
72049;SDS011;59916;50.914;5.888;2022-08-02T02:28:52;2.75;;;2.17;;
72049;SDS011;59916;50.914;5.888;2022-08-02T02:31:19;3.58;;;2.30;;
72049;SDS011;59916;50.914;5.888;2022-08-02T02:33:47;2.88;;;1.90;;
72049;SDS011;59916;50.914;5.888;2022-08-02T02:36:15;2.80;;;2.33;;
72049;SDS011;59916;50.914;5.888;2022-08-02T02:38:42;2.60;;;2.00;;
72049;SDS011;59916;50.914;5.888;2022-08-02T02:41:09;3.20;;;2.35;;
72049;SDS011;59916;50.914;5.888;2022-08-02T02:43:36;3.92;;;2.47;;
72049;SDS011;59916;50.914;5.888;2022-08-02T02:46:02;3.03;;;2.15;;
72049;SDS011;59916;50.914;5.888;2022-08-02T02:48:29;2.70;;;2.10;;
72049;SDS011;59916;50.914;5.888;2022-08-02T02:50:55;3.80;;;2.00;;
72049;SDS011;59916;50.914;5.888;2022-08-02T02:53:22;2.80;;;2.20;;
72049;SDS011;59916;50.914;5.888;2022-08-02T02:55:48;2.75;;;1.95;;
72049;SDS011;59916;50.914;5.888;2022-08-02T02:58:14;4.38;;;2.28;;
72049;SDS011;59916;50.914;5.888;2022-08-02T03:00:40;3.20;;;2.40;;
72049;SDS011;59916;50.914;5.888;2022-08-02T03:03:24;3.35;;;2.20;;
72049;SDS011;59916;50.914;5.888;2022-08-02T03:05:49;2.93;;;1.87;;
72049;SDS011;59916;50.914;5.888;2022-08-02T03:08:15;3.17;;;2.40;;
72049;SDS011;59916;50.914;5.888;2022-08-02T03:10:41;2.58;;;2.00;;
72049;SDS011;59916;50.914;5.888;2022-08-02T03:13:08;2.92;;;2.40;;
72049;SDS011;59916;50.914;5.888;2022-08-02T03:15:34;3.03;;;2.00;;
72049;SDS011;59916;50.914;5.888;2022-08-02T03:18:01;3.03;;;2.38;;
72049;SDS011;59916;50.914;5.888;2022-08-02T03:20:27;3.57;;;2.50;;
72049;SDS011;59916;50.914;5.888;2022-08-02T03:22:52;3.93;;;2.40;;
72049;SDS011;59916;50.914;5.888;2022-08-02T03:25:17;3.08;;;2.25;;
72049;SDS011;59916;50.914;5.888;2022-08-02T03:27:43;3.47;;;2.20;;
72049;SDS011;59916;50.914;5.888;2022-08-02T03:30:10;2.83;;;2.13;;
72049;SDS011;59916;50.914;5.888;2022-08-02T03:32:37;3.65;;;2.50;;
72049;SDS011;59916;50.914;5.888;2022-08-02T03:35:04;3.22;;;2.40;;
72049;SDS011;59916;50.914;5.888;2022-08-02T03:37:32;2.67;;;1.90;;
72049;SDS011;59916;50.914;5.888;2022-08-02T03:39:59;2.85;;;2.20;;
72049;SDS011;59916;50.914;5.888;2022-08-02T03:42:25;2.72;;;2.08;;
72049;SDS011;59916;50.914;5.888;2022-08-02T03:44:52;3.67;;;2.60;;
72049;SDS011;59916;50.914;5.888;2022-08-02T03:47:19;3.53;;;2.00;;
72049;SDS011;59916;50.914;5.888;2022-08-02T03:49:45;2.73;;;2.27;;
72049;SDS011;59916;50.914;5.888;2022-08-02T03:52:11;3.13;;;2.40;;
72049;SDS011;59916;50.914;5.888;2022-08-02T03:54:37;3.15;;;2.20;;
72049;SDS011;59916;50.914;5.888;2022-08-02T03:57:06;3.17;;;2.20;;
72049;SDS011;59916;50.914;5.888;2022-08-02T03:59:44;2.83;;;2.03;;
72049;SDS011;59916;50.914;5.888;2022-08-02T04:02:11;2.55;;;2.15;;
72049;SDS011;59916;50.914;5.888;2022-08-02T04:04:37;2.67;;;2.00;;
72049;SDS011;59916;50.914;5.888;2022-08-02T04:07:03;3.70;;;2.67;;
72049;SDS011;59916;50.914;5.888;2022-08-02T04:09:29;2.92;;;2.28;;
72049;SDS011;59916;50.914;5.888;2022-08-02T04:11:54;2.80;;;2.20;;
72049;SDS011;59916;50.914;5.888;2022-08-02T04:14:19;2.70;;;2.10;;
72049;SDS011;59916;50.914;5.888;2022-08-02T04:16:47;4.50;;;2.40;;
72049;SDS011;59916;50.914;5.888;2022-08-02T04:19:18;3.47;;;2.30;;
72049;SDS011;59916;50.914;5.888;2022-08-02T04:21:50;3.45;;;2.47;;
72049;SDS011;59916;50.914;5.888;2022-08-02T04:24:21;3.43;;;2.43;;
72049;SDS011;59916;50.914;5.888;2022-08-02T04:26:52;2.90;;;2.10;;
72049;SDS011;59916;50.914;5.888;2022-08-02T04:29:21;3.50;;;2.70;;
72049;SDS011;59916;50.914;5.888;2022-08-02T04:31:49;3.38;;;2.33;;
72049;SDS011;59916;50.914;5.888;2022-08-02T04:34:15;3.33;;;2.35;;
72049;SDS011;59916;50.914;5.888;2022-08-02T04:36:41;3.30;;;2.47;;
72049;SDS011;59916;50.914;5.888;2022-08-02T04:39:07;3.33;;;2.50;;
72049;SDS011;59916;50.914;5.888;2022-08-02T04:41:50;4.20;;;2.53;;
72049;SDS011;59916;50.914;5.888;2022-08-02T04:44:15;3.58;;;2.50;;
72049;SDS011;59916;50.914;5.888;2022-08-02T04:46:42;3.40;;;2.60;;
72049;SDS011;59916;50.914;5.888;2022-08-02T04:49:08;3.47;;;2.67;;
72049;SDS011;59916;50.914;5.888;2022-08-02T04:51:40;3.67;;;2.30;;
72049;SDS011;59916;50.914;5.888;2022-08-02T04:54:06;3.10;;;2.55;;
72049;SDS011;59916;50.914;5.888;2022-08-02T04:56:32;3.28;;;2.60;;
72049;SDS011;59916;50.914;5.888;2022-08-02T04:58:58;3.17;;;2.57;;
72049;SDS011;59916;50.914;5.888;2022-08-02T05:01:23;3.37;;;2.60;;
72049;SDS011;59916;50.914;5.888;2022-08-02T05:03:49;3.23;;;2.40;;
72049;SDS011;59916;50.914;5.888;2022-08-02T05:06:14;3.67;;;2.20;;
72049;SDS011;59916;50.914;5.888;2022-08-02T05:08:40;3.77;;;2.30;;
72049;SDS011;59916;50.914;5.888;2022-08-02T05:11:05;2.60;;;2.20;;
72049;SDS011;59916;50.914;5.888;2022-08-02T05:13:31;3.57;;;2.40;;
72049;SDS011;59916;50.914;5.888;2022-08-02T05:15:56;3.13;;;2.30;;
72049;SDS011;59916;50.914;5.888;2022-08-02T05:18:25;2.92;;;2.30;;
72049;SDS011;59916;50.914;5.888;2022-08-02T05:20:52;3.10;;;2.37;;
72049;SDS011;59916;50.914;5.888;2022-08-02T05:23:17;3.23;;;2.40;;
72049;SDS011;59916;50.914;5.888;2022-08-02T05:25:43;3.97;;;2.27;;
72049;SDS011;59916;50.914;5.888;2022-08-02T05:28:08;2.70;;;2.20;;
72049;SDS011;59916;50.914;5.888;2022-08-02T05:30:33;3.47;;;2.43;;
72049;SDS011;59916;50.914;5.888;2022-08-02T05:32:58;3.87;;;2.73;;
72049;SDS011;59916;50.914;5.888;2022-08-02T05:35:24;2.77;;;2.17;;
72049;SDS011;59916;50.914;5.888;2022-08-02T05:37:49;2.47;;;2.10;;
72049;SDS011;59916;50.914;5.888;2022-08-02T05:40:16;3.13;;;2.30;;
72049;SDS011;59916;50.914;5.888;2022-08-02T05:42:42;2.78;;;2.17;;
72049;SDS011;59916;50.914;5.888;2022-08-02T05:45:08;2.97;;;2.28;;
72049;SDS011;59916;50.914;5.888;2022-08-02T05:47:34;4.33;;;2.60;;
72049;SDS011;59916;50.914;5.888;2022-08-02T05:49:59;3.30;;;2.50;;
72049;SDS011;59916;50.914;5.888;2022-08-02T05:52:25;2.90;;;2.10;;
72049;SDS011;59916;50.914;5.888;2022-08-02T05:55:16;3.00;;;2.30;;
72049;SDS011;59916;50.914;5.888;2022-08-02T05:57:48;4.10;;;2.50;;
72049;SDS011;59916;50.914;5.888;2022-08-02T06:00:26;3.40;;;2.28;;
72049;SDS011;59916;50.914;5.888;2022-08-02T06:03:16;2.90;;;2.30;;
72049;SDS011;59916;50.914;5.888;2022-08-02T06:05:49;3.42;;;2.75;;
72049;SDS011;59916;50.914;5.888;2022-08-02T06:08:15;3.87;;;2.47;;
72049;SDS011;59916;50.914;5.888;2022-08-02T06:10:41;3.25;;;2.38;;
72049;SDS011;59916;50.914;5.888;2022-08-02T06:13:09;3.15;;;2.30;;
72049;SDS011;59916;50.914;5.888;2022-08-02T06:15:36;2.90;;;2.50;;
72049;SDS011;59916;50.914;5.888;2022-08-02T06:18:02;2.92;;;2.35;;
72049;SDS011;59916;50.914;5.888;2022-08-02T06:20:30;2.60;;;2.37;;
72049;SDS011;59916;50.914;5.888;2022-08-02T06:23:04;3.10;;;2.30;;
72049;SDS011;59916;50.914;5.888;2022-08-02T06:25:32;2.72;;;2.20;;
72049;SDS011;59916;50.914;5.888;2022-08-02T06:27:59;2.70;;;2.20;;
72049;SDS011;59916;50.914;5.888;2022-08-02T06:30:25;2.72;;;2.42;;
72049;SDS011;59916;50.914;5.888;2022-08-02T06:32:52;3.07;;;2.30;;
72049;SDS011;59916;50.914;5.888;2022-08-02T06:35:18;2.88;;;2.25;;
72049;SDS011;59916;50.914;5.888;2022-08-02T06:37:51;2.85;;;2.30;;
72049;SDS011;59916;50.914;5.888;2022-08-02T06:45:20;2.97;;;2.30;;
72049;SDS011;59916;50.914;5.888;2022-08-02T06:47:45;2.90;;;2.60;;
72049;SDS011;59916;50.914;5.888;2022-08-02T06:50:12;2.45;;;2.22;;
72049;SDS011;59916;50.914;5.888;2022-08-02T06:52:37;2.87;;;2.30;;
72049;SDS011;59916;50.914;5.888;2022-08-02T06:55:03;2.73;;;2.40;;
72049;SDS011;59916;50.914;5.888;2022-08-02T06:57:30;3.08;;;2.50;;
72049;SDS011;59916;50.914;5.888;2022-08-02T06:59:56;3.08;;;2.53;;
72049;SDS011;59916;50.914;5.888;2022-08-02T07:02:24;3.15;;;2.30;;
72049;SDS011;59916;50.914;5.888;2022-08-02T07:04:50;2.83;;;2.13;;
72049;SDS011;59916;50.914;5.888;2022-08-02T07:07:15;2.50;;;2.30;;
72049;SDS011;59916;50.914;5.888;2022-08-02T07:09:41;2.88;;;2.20;;
72049;SDS011;59916;50.914;5.888;2022-08-02T07:12:06;2.87;;;2.50;;
72049;SDS011;59916;50.914;5.888;2022-08-02T07:14:32;3.17;;;2.43;;
72049;SDS011;59916;50.914;5.888;2022-08-02T07:16:57;2.70;;;2.10;;
72049;SDS011;59916;50.914;5.888;2022-08-02T07:19:23;3.33;;;2.30;;
72049;SDS011;59916;50.914;5.888;2022-08-02T07:21:48;2.63;;;2.43;;
72049;SDS011;59916;50.914;5.888;2022-08-02T07:24:13;3.20;;;2.70;;
72049;SDS011;59916;50.914;5.888;2022-08-02T07:26:39;2.73;;;2.10;;
72049;SDS011;59916;50.914;5.888;2022-08-02T07:29:04;2.83;;;2.17;;
72049;SDS011;59916;50.914;5.888;2022-08-02T07:31:30;2.80;;;2.30;;
72049;SDS011;59916;50.914;5.888;2022-08-02T07:33:55;2.80;;;2.50;;
72049;SDS011;59916;50.914;5.888;2022-08-02T07:36:20;2.90;;;1.93;;
72049;SDS011;59916;50.914;5.888;2022-08-02T07:38:45;3.33;;;2.30;;
72049;SDS011;59916;50.914;5.888;2022-08-02T07:41:11;2.70;;;2.30;;
72049;SDS011;59916;50.914;5.888;2022-08-02T07:43:36;2.90;;;2.33;;
72049;SDS011;59916;50.914;5.888;2022-08-02T07:46:01;2.67;;;2.30;;
72049;SDS011;59916;50.914;5.888;2022-08-02T07:48:27;3.00;;;2.50;;
72049;SDS011;59916;50.914;5.888;2022-08-02T07:50:52;3.10;;;2.23;;
72049;SDS011;59916;50.914;5.888;2022-08-02T07:53:18;3.70;;;2.60;;
72049;SDS011;59916;50.914;5.888;2022-08-02T07:55:43;4.93;;;3.17;;
72049;SDS011;59916;50.914;5.888;2022-08-02T07:58:09;3.55;;;2.88;;
72049;SDS011;59916;50.914;5.888;2022-08-02T08:00:35;4.30;;;3.20;;
72049;SDS011;59916;50.914;5.888;2022-08-02T08:03:00;4.27;;;3.40;;
72049;SDS011;59916;50.914;5.888;2022-08-02T08:05:25;7.33;;;3.40;;
72049;SDS011;59916;50.914;5.888;2022-08-02T08:07:51;5.00;;;3.00;;
72049;SDS011;59916;50.914;5.888;2022-08-02T08:10:16;4.37;;;2.97;;
72049;SDS011;59916;50.914;5.888;2022-08-02T08:12:41;6.40;;;3.20;;
72049;SDS011;59916;50.914;5.888;2022-08-02T08:15:07;6.17;;;3.13;;
72049;SDS011;59916;50.914;5.888;2022-08-02T08:17:33;4.20;;;2.90;;
72049;SDS011;59916;50.914;5.888;2022-08-02T08:19:59;6.00;;;2.78;;
72049;SDS011;59916;50.914;5.888;2022-08-02T08:22:25;3.65;;;2.83;;
72049;SDS011;59916;50.914;5.888;2022-08-02T08:24:50;4.10;;;2.60;;
72049;SDS011;59916;50.914;5.888;2022-08-02T08:27:16;4.87;;;2.80;;
72049;SDS011;59916;50.914;5.888;2022-08-02T08:29:42;4.68;;;2.65;;
72049;SDS011;59916;50.914;5.888;2022-08-02T08:32:08;3.72;;;2.90;;
72049;SDS011;59916;50.914;5.888;2022-08-02T08:34:34;4.57;;;3.10;;
72049;SDS011;59916;50.914;5.888;2022-08-02T08:36:59;4.37;;;3.00;;
72049;SDS011;59916;50.914;5.888;2022-08-02T08:39:26;4.10;;;3.10;;
72049;SDS011;59916;50.914;5.888;2022-08-02T08:41:51;5.10;;;3.10;;
72049;SDS011;59916;50.914;5.888;2022-08-02T08:44:16;6.57;;;3.40;;
72049;SDS011;59916;50.914;5.888;2022-08-02T08:46:42;4.97;;;2.85;;
72049;SDS011;59916;50.914;5.888;2022-08-02T08:49:11;5.20;;;2.90;;
72049;SDS011;59916;50.914;5.888;2022-08-02T08:51:47;4.10;;;2.88;;
72049;SDS011;59916;50.914;5.888;2022-08-02T08:54:15;5.20;;;2.95;;
72049;SDS011;59916;50.914;5.888;2022-08-02T08:56:42;6.50;;;3.47;;
72049;SDS011;59916;50.914;5.888;2022-08-02T08:59:09;5.85;;;3.22;;
72049;SDS011;59916;50.914;5.888;2022-08-02T09:01:35;5.27;;;3.07;;
72049;SDS011;59916;50.914;5.888;2022-08-02T09:04:00;5.38;;;3.03;;
72049;SDS011;59916;50.914;5.888;2022-08-02T09:06:26;4.67;;;2.93;;
72049;SDS011;59916;50.914;5.888;2022-08-02T09:08:51;6.47;;;3.30;;
72049;SDS011;59916;50.914;5.888;2022-08-02T09:11:18;6.47;;;3.47;;
72049;SDS011;59916;50.914;5.888;2022-08-02T09:13:54;4.38;;;3.22;;
72049;SDS011;59916;50.914;5.888;2022-08-02T09:19:20;7.55;;;3.30;;
72049;SDS011;59916;50.914;5.888;2022-08-02T09:21:48;5.32;;;3.42;;
72049;SDS011;59916;50.914;5.888;2022-08-02T09:24:21;4.90;;;3.47;;
72049;SDS011;59916;50.914;5.888;2022-08-02T09:26:48;5.55;;;3.55;;
72049;SDS011;59916;50.914;5.888;2022-08-02T09:29:14;7.78;;;3.65;;
72049;SDS011;59916;50.914;5.888;2022-08-02T09:31:41;9.55;;;3.72;;
72049;SDS011;59916;50.914;5.888;2022-08-02T09:34:07;11.83;;;4.83;;
72049;SDS011;59916;50.914;5.888;2022-08-02T09:36:42;10.57;;;4.15;;
72049;SDS011;59916;50.914;5.888;2022-08-02T09:39:10;11.52;;;4.93;;
72049;SDS011;59916;50.914;5.888;2022-08-02T09:41:38;12.27;;;4.57;;
72049;SDS011;59916;50.914;5.888;2022-08-02T09:44:06;10.95;;;4.60;;
72049;SDS011;59916;50.914;5.888;2022-08-02T09:46:37;9.98;;;4.80;;
72049;SDS011;59916;50.914;5.888;2022-08-02T09:49:10;8.85;;;4.70;;
72049;SDS011;59916;50.914;5.888;2022-08-02T09:51:39;11.00;;;4.95;;
72049;SDS011;59916;50.914;5.888;2022-08-02T09:54:14;12.53;;;5.03;;
72049;SDS011;59916;50.914;5.888;2022-08-02T09:56:42;9.40;;;4.20;;
72049;SDS011;59916;50.914;5.888;2022-08-02T09:59:15;10.65;;;4.78;;
72049;SDS011;59916;50.914;5.888;2022-08-02T10:01:42;9.35;;;4.60;;
72049;SDS011;59916;50.914;5.888;2022-08-02T10:04:09;14.10;;;4.70;;
72049;SDS011;59916;50.914;5.888;2022-08-02T10:06:39;8.47;;;4.37;;
72049;SDS011;59916;50.914;5.888;2022-08-02T10:09:08;11.23;;;4.60;;
72049;SDS011;59916;50.914;5.888;2022-08-02T10:11:35;11.32;;;4.70;;
72049;SDS011;59916;50.914;5.888;2022-08-02T10:14:03;8.73;;;4.45;;
72049;SDS011;59916;50.914;5.888;2022-08-02T10:16:32;9.40;;;4.20;;
72049;SDS011;59916;50.914;5.888;2022-08-02T10:18:58;8.73;;;4.40;;
72049;SDS011;59916;50.914;5.888;2022-08-02T10:24:21;8.60;;;4.05;;
72049;SDS011;59916;50.914;5.888;2022-08-02T10:26:51;7.75;;;4.18;;
72049;SDS011;59916;50.914;5.888;2022-08-02T10:29:19;8.57;;;4.47;;
72049;SDS011;59916;50.914;5.888;2022-08-02T10:35:14;8.07;;;4.30;;
72049;SDS011;59916;50.914;5.888;2022-08-02T10:37:30;8.52;;;3.88;;
72049;SDS011;59916;50.914;5.888;2022-08-02T10:40:00;7.57;;;4.32;;
72049;SDS011;59916;50.914;5.888;2022-08-02T10:42:42;7.10;;;4.23;;
72049;SDS011;59916;50.914;5.888;2022-08-02T10:45:09;8.50;;;4.03;;
72049;SDS011;59916;50.914;5.888;2022-08-02T10:47:36;8.45;;;3.92;;
72049;SDS011;59916;50.914;5.888;2022-08-02T10:50:01;7.00;;;4.03;;
72049;SDS011;59916;50.914;5.888;2022-08-02T10:52:28;7.45;;;3.70;;
72049;SDS011;59916;50.914;5.888;2022-08-02T10:57:24;7.50;;;4.10;;
72049;SDS011;59916;50.914;5.888;2022-08-02T10:59:53;7.60;;;4.10;;
72049;SDS011;59916;50.914;5.888;2022-08-02T11:02:35;5.88;;;3.95;;
72049;SDS011;59916;50.914;5.888;2022-08-02T11:05:08;5.90;;;3.38;;
72049;SDS011;59916;50.914;5.888;2022-08-02T11:07:41;5.97;;;3.83;;
72049;SDS011;59916;50.914;5.888;2022-08-02T11:15:28;5.72;;;3.78;;
72049;SDS011;59916;50.914;5.888;2022-08-02T11:17:54;5.90;;;3.60;;
72049;SDS011;59916;50.914;5.888;2022-08-02T11:20:21;5.93;;;3.60;;
72049;SDS011;59916;50.914;5.888;2022-08-02T11:22:48;7.47;;;4.10;;
72049;SDS011;59916;50.914;5.888;2022-08-02T11:27:56;6.68;;;3.92;;
72049;SDS011;59916;50.914;5.888;2022-08-02T11:30:32;4.70;;;3.47;;
72049;SDS011;59916;50.914;5.888;2022-08-02T11:32:59;5.95;;;3.90;;
72049;SDS011;59916;50.914;5.888;2022-08-02T11:35:31;7.40;;;4.17;;
72049;SDS011;59916;50.914;5.888;2022-08-02T11:38:02;7.32;;;3.92;;
72049;SDS011;59916;50.914;5.888;2022-08-02T11:40:37;5.68;;;3.70;;
72049;SDS011;59916;50.914;5.888;2022-08-02T11:43:02;5.17;;;3.33;;
72049;SDS011;59916;50.914;5.888;2022-08-02T11:45:27;5.00;;;3.50;;
72049;SDS011;59916;50.914;5.888;2022-08-02T11:47:53;5.80;;;3.60;;
72049;SDS011;59916;50.914;5.888;2022-08-02T11:50:21;6.23;;;3.60;;
72049;SDS011;59916;50.914;5.888;2022-08-02T11:52:51;5.13;;;3.40;;
72049;SDS011;59916;50.914;5.888;2022-08-02T11:55:17;7.30;;;3.35;;
72049;SDS011;59916;50.914;5.888;2022-08-02T11:57:56;5.82;;;3.33;;
72049;SDS011;59916;50.914;5.888;2022-08-02T12:00:22;7.10;;;3.80;;
72049;SDS011;59916;50.914;5.888;2022-08-02T12:02:48;6.00;;;3.77;;
72049;SDS011;59916;50.914;5.888;2022-08-02T12:05:17;6.20;;;3.73;;
72049;SDS011;59916;50.914;5.888;2022-08-02T12:07:44;4.80;;;3.72;;
72049;SDS011;59916;50.914;5.888;2022-08-02T12:10:17;7.35;;;3.60;;
72049;SDS011;59916;50.914;5.888;2022-08-02T12:12:52;5.33;;;3.00;;
72049;SDS011;59916;50.914;5.888;2022-08-02T12:17:58;6.70;;;4.22;;
72049;SDS011;59916;50.914;5.888;2022-08-02T12:20:43;5.78;;;3.80;;
72049;SDS011;59916;50.914;5.888;2022-08-02T12:23:09;7.20;;;3.67;;
72049;SDS011;59916;50.914;5.888;2022-08-02T12:25:34;6.93;;;3.80;;
72049;SDS011;59916;50.914;5.888;2022-08-02T12:28:16;7.03;;;3.43;;
72049;SDS011;59916;50.914;5.888;2022-08-02T12:33:18;6.47;;;3.45;;
72049;SDS011;59916;50.914;5.888;2022-08-02T12:35:44;5.47;;;3.40;;
72049;SDS011;59916;50.914;5.888;2022-08-02T12:38:10;7.60;;;3.73;;
72049;SDS011;59916;50.914;5.888;2022-08-02T12:40:36;5.17;;;2.97;;
72049;SDS011;59916;50.914;5.888;2022-08-02T12:43:03;5.28;;;3.35;;
72049;SDS011;59916;50.914;5.888;2022-08-02T12:45:31;6.00;;;3.20;;
72049;SDS011;59916;50.914;5.888;2022-08-02T12:48:08;7.00;;;3.28;;
72049;SDS011;59916;50.914;5.888;2022-08-02T12:50:34;4.43;;;2.80;;
72049;SDS011;59916;50.914;5.888;2022-08-02T12:55:33;6.20;;;3.35;;
72049;SDS011;59916;50.914;5.888;2022-08-02T12:58:02;4.80;;;3.20;;
72049;SDS011;59916;50.914;5.888;2022-08-02T13:00:30;6.53;;;2.90;;
72049;SDS011;59916;50.914;5.888;2022-08-02T13:02:59;5.78;;;3.00;;
72049;SDS011;59916;50.914;5.888;2022-08-02T13:05:25;4.85;;;2.83;;
72049;SDS011;59916;50.914;5.888;2022-08-02T13:07:53;5.10;;;3.10;;
72049;SDS011;59916;50.914;5.888;2022-08-02T13:10:18;5.77;;;3.20;;
72049;SDS011;59916;50.914;5.888;2022-08-02T13:12:44;5.05;;;2.90;;
72049;SDS011;59916;50.914;5.888;2022-08-02T13:15:10;6.17;;;2.77;;
72049;SDS011;59916;50.914;5.888;2022-08-02T13:17:36;4.30;;;2.65;;
72049;SDS011;59916;50.914;5.888;2022-08-02T13:20:02;3.90;;;2.80;;
72049;SDS011;59916;50.914;5.888;2022-08-02T13:22:29;4.40;;;2.72;;
72049;SDS011;59916;50.914;5.888;2022-08-02T13:24:54;4.03;;;3.00;;
72049;SDS011;59916;50.914;5.888;2022-08-02T13:27:19;4.97;;;2.88;;
72049;SDS011;59916;50.914;5.888;2022-08-02T13:29:45;5.03;;;2.93;;
72049;SDS011;59916;50.914;5.888;2022-08-02T13:32:10;4.40;;;2.77;;
72049;SDS011;59916;50.914;5.888;2022-08-02T13:34:37;5.70;;;2.95;;
72049;SDS011;59916;50.914;5.888;2022-08-02T13:37:03;4.82;;;2.30;;
72049;SDS011;59916;50.914;5.888;2022-08-02T13:39:29;4.53;;;2.97;;
72049;SDS011;59916;50.914;5.888;2022-08-02T13:41:54;6.40;;;2.70;;
72049;SDS011;59916;50.914;5.888;2022-08-02T13:44:20;4.60;;;2.87;;
72049;SDS011;59916;50.914;5.888;2022-08-02T13:46:45;7.68;;;2.50;;
72049;SDS011;59916;50.914;5.888;2022-08-02T13:49:11;4.87;;;3.07;;
72049;SDS011;59916;50.914;5.888;2022-08-02T13:51:37;6.07;;;3.15;;
72049;SDS011;59916;50.914;5.888;2022-08-02T13:54:03;6.07;;;3.00;;
72049;SDS011;59916;50.914;5.888;2022-08-02T13:56:28;5.60;;;3.10;;
72049;SDS011;59916;50.914;5.888;2022-08-02T13:58:53;4.87;;;2.70;;
72049;SDS011;59916;50.914;5.888;2022-08-02T14:01:19;5.83;;;2.80;;
72049;SDS011;59916;50.914;5.888;2022-08-02T14:03:44;4.87;;;2.60;;
72049;SDS011;59916;50.914;5.888;2022-08-02T14:06:09;8.03;;;2.87;;
72049;SDS011;59916;50.914;5.888;2022-08-02T14:08:35;6.90;;;2.93;;
72049;SDS011;59916;50.914;5.888;2022-08-02T14:11:02;4.17;;;2.60;;
72049;SDS011;59916;50.914;5.888;2022-08-02T14:13:28;5.25;;;2.78;;
72049;SDS011;59916;50.914;5.888;2022-08-02T14:15:53;4.57;;;2.80;;
72049;SDS011;59916;50.914;5.888;2022-08-02T14:18:18;3.83;;;2.38;;
72049;SDS011;59916;50.914;5.888;2022-08-02T14:20:44;4.50;;;2.70;;
72049;SDS011;59916;50.914;5.888;2022-08-02T14:23:10;4.60;;;2.77;;
72049;SDS011;59916;50.914;5.888;2022-08-02T14:25:35;4.65;;;2.83;;
72049;SDS011;59916;50.914;5.888;2022-08-02T14:28:01;4.33;;;2.80;;
72049;SDS011;59916;50.914;5.888;2022-08-02T14:30:27;4.25;;;2.47;;
72049;SDS011;59916;50.914;5.888;2022-08-02T14:32:53;4.43;;;2.63;;
72049;SDS011;59916;50.914;5.888;2022-08-02T14:35:18;4.80;;;2.60;;
72049;SDS011;59916;50.914;5.888;2022-08-02T14:37:43;5.87;;;2.93;;
72049;SDS011;59916;50.914;5.888;2022-08-02T14:40:09;3.80;;;2.20;;
72049;SDS011;59916;50.914;5.888;2022-08-02T14:42:34;4.50;;;2.80;;
72049;SDS011;59916;50.914;5.888;2022-08-02T14:45:00;3.53;;;2.47;;
72049;SDS011;59916;50.914;5.888;2022-08-02T14:47:25;4.10;;;2.20;;
72049;SDS011;59916;50.914;5.888;2022-08-02T14:49:51;4.05;;;2.50;;
72049;SDS011;59916;50.914;5.888;2022-08-02T14:52:16;3.47;;;2.03;;
72049;SDS011;59916;50.914;5.888;2022-08-02T14:54:42;3.10;;;2.40;;
72049;SDS011;59916;50.914;5.888;2022-08-02T14:57:08;4.00;;;2.50;;
72049;SDS011;59916;50.914;5.888;2022-08-02T14:59:34;3.43;;;2.30;;
72049;SDS011;59916;50.914;5.888;2022-08-02T15:02:00;6.05;;;2.05;;
72049;SDS011;59916;50.914;5.888;2022-08-02T15:04:25;3.50;;;2.30;;
72049;SDS011;59916;50.914;5.888;2022-08-02T15:06:51;4.28;;;2.65;;
72049;SDS011;59916;50.914;5.888;2022-08-02T15:09:17;4.88;;;2.30;;
72049;SDS011;59916;50.914;5.888;2022-08-02T15:11:43;4.43;;;2.50;;
72049;SDS011;59916;50.914;5.888;2022-08-02T15:14:08;3.93;;;2.43;;
72049;SDS011;59916;50.914;5.888;2022-08-02T15:16:33;6.23;;;2.50;;
72049;SDS011;59916;50.914;5.888;2022-08-02T15:19:05;3.95;;;2.65;;
72049;SDS011;59916;50.914;5.888;2022-08-02T15:21:31;4.82;;;2.35;;
72049;SDS011;59916;50.914;5.888;2022-08-02T15:23:56;5.63;;;2.20;;
72049;SDS011;59916;50.914;5.888;2022-08-02T15:26:22;5.37;;;2.60;;
72049;SDS011;59916;50.914;5.888;2022-08-02T15:28:48;6.87;;;2.30;;
72049;SDS011;59916;50.914;5.888;2022-08-02T15:31:14;3.78;;;2.38;;
72049;SDS011;59916;50.914;5.888;2022-08-02T15:33:39;4.43;;;2.20;;
72049;SDS011;59916;50.914;5.888;2022-08-02T15:36:05;3.75;;;2.35;;